createdAt,value
2019-02-10T00:00:48.581Z,8.05
2019-02-10T00:03:17.359Z,4.30
2019-02-10T00:05:46.092Z,7.20
2019-02-10T00:08:14.868Z,8.48
2019-02-10T00:10:43.977Z,10.40
2019-02-10T00:13:29.690Z,8.73
2019-02-10T00:16:00.459Z,7.60
2019-02-10T00:18:29.198Z,7.72
2019-02-10T00:20:57.968Z,9.15
2019-02-10T00:23:26.814Z,11.20
2019-02-10T00:25:55.576Z,10.82
2019-02-10T00:28:24.906Z,5.25
2019-02-10T00:30:53.693Z,6.85
2019-02-10T00:33:22.527Z,7.08
2019-02-10T00:35:51.305Z,5.85
2019-02-10T00:38:20.123Z,10.95
2019-02-10T00:40:48.907Z,4.60
2019-02-10T00:43:17.734Z,6.55
2019-02-10T00:45:46.497Z,9.15
2019-02-10T00:48:15.219Z,7.92
2019-02-10T00:50:43.954Z,6.22
2019-02-10T00:53:12.754Z,11.08
2019-02-10T00:55:41.530Z,7.40
2019-02-10T00:58:10.330Z,11.65
2019-02-10T01:00:39.105Z,9.03
2019-02-10T01:03:07.902Z,9.28
2019-02-10T01:05:36.752Z,10.93
2019-02-10T01:08:05.825Z,6.08
2019-02-10T01:10:34.585Z,7.42
2019-02-10T01:13:03.318Z,8.20
2019-02-10T01:15:32.070Z,7.85
2019-02-10T01:18:00.895Z,7.60
2019-02-10T01:20:29.671Z,10.78
2019-02-10T01:22:58.509Z,8.53
2019-02-10T01:25:27.299Z,9.90
2019-02-10T01:27:56.141Z,10.80
2019-02-10T01:30:24.877Z,9.90
2019-02-10T01:32:53.756Z,9.88
2019-02-10T01:35:22.503Z,12.68
2019-02-10T01:37:51.528Z,9.15
2019-02-10T01:40:20.317Z,15.70
2019-02-10T01:42:49.166Z,8.30
2019-02-10T01:45:17.933Z,12.53
2019-02-10T01:47:46.804Z,10.50
2019-02-10T01:50:15.601Z,12.37
2019-02-10T01:52:44.431Z,8.30
2019-02-10T01:55:13.809Z,8.80
2019-02-10T01:57:42.629Z,7.50
2019-02-10T02:00:14.481Z,10.43
2019-02-10T02:02:43.243Z,8.10
2019-02-10T02:05:12.057Z,8.05
2019-02-10T02:07:40.861Z,9.10
2019-02-10T02:10:16.676Z,5.55
2019-02-10T02:12:45.519Z,14.68
2019-02-10T02:15:15.619Z,8.28
2019-02-10T02:17:44.505Z,7.80
2019-02-10T02:20:14.182Z,9.58
2019-02-10T02:22:43.014Z,8.80
2019-02-10T02:25:13.168Z,11.73
2019-02-10T02:27:41.978Z,8.18
2019-02-10T02:30:12.766Z,10.95
2019-02-10T02:32:41.500Z,7.62
2019-02-10T02:35:10.666Z,9.65
2019-02-10T02:37:39.441Z,11.48
2019-02-10T02:40:12.244Z,10.63
2019-02-10T02:42:41.099Z,10.23
2019-02-10T02:45:11.774Z,7.60
2019-02-10T02:47:40.618Z,8.48
2019-02-10T02:50:11.073Z,8.93
2019-02-10T02:52:39.910Z,13.50
2019-02-10T02:55:11.926Z,8.55
2019-02-10T02:57:40.727Z,10.78
2019-02-10T03:00:10.709Z,8.48
2019-02-10T03:02:39.456Z,17.07
2019-02-10T03:05:09.967Z,9.28
2019-02-10T03:07:38.724Z,11.45
2019-02-10T03:10:09.240Z,4.30
2019-02-10T03:12:38.034Z,7.70
2019-02-10T03:15:08.904Z,11.00
2019-02-10T03:17:37.682Z,6.58
2019-02-10T03:20:07.837Z,8.50
2019-02-10T03:22:36.571Z,6.83
2019-02-10T03:25:07.054Z,6.03
2019-02-10T03:27:35.834Z,8.30
2019-02-10T03:30:11.773Z,9.83
2019-02-10T03:32:41.064Z,4.03
2019-02-10T03:35:10.243Z,12.20
2019-02-10T03:37:39.278Z,12.20
2019-02-10T03:40:09.687Z,4.40
2019-02-10T03:42:38.407Z,6.00
2019-02-10T03:45:08.307Z,11.03
2019-02-10T03:47:37.129Z,6.65
2019-02-10T03:50:07.513Z,11.97
2019-02-10T03:52:36.303Z,8.15
2019-02-10T03:55:06.582Z,5.67
2019-02-10T03:57:35.704Z,7.10
2019-02-10T04:00:12.370Z,10.93
2019-02-10T04:02:41.117Z,9.55
2019-02-10T04:05:09.853Z,12.90
2019-02-10T04:07:38.627Z,10.45
2019-02-10T04:10:12.257Z,7.95
2019-02-10T04:12:41.053Z,6.95
2019-02-10T04:15:10.045Z,7.78
2019-02-10T04:17:38.801Z,9.10
2019-02-10T04:20:09.274Z,7.55
2019-02-10T04:22:37.999Z,9.73
2019-02-10T04:25:07.413Z,16.02
2019-02-10T04:27:36.181Z,8.98
2019-02-10T04:30:09.168Z,8.03
2019-02-10T04:32:38.369Z,14.73
2019-02-10T04:35:07.168Z,5.80
2019-02-10T04:37:44.986Z,8.35
2019-02-10T04:40:07.273Z,4.97
2019-02-10T04:42:36.044Z,7.42
2019-02-10T04:45:05.612Z,10.30
2019-02-10T04:47:34.371Z,8.98
2019-02-10T04:50:03.300Z,12.53
2019-02-10T04:52:32.073Z,11.63
2019-02-10T04:55:00.801Z,7.53
2019-02-10T04:57:29.610Z,7.08
2019-02-10T04:59:58.353Z,19.05
2019-02-10T05:02:27.128Z,8.28
2019-02-10T05:04:55.937Z,9.48
2019-02-10T05:07:24.677Z,9.55
2019-02-10T05:09:53.422Z,12.75
2019-02-10T05:12:22.156Z,11.83
2019-02-10T05:14:50.909Z,9.13
2019-02-10T05:17:19.702Z,7.37
2019-02-10T05:19:48.498Z,10.88
2019-02-10T05:22:17.222Z,7.62
2019-02-10T05:24:45.963Z,7.70
2019-02-10T05:27:14.757Z,6.45
2019-02-10T05:29:43.587Z,11.53
2019-02-10T05:32:12.404Z,9.53
2019-02-10T05:34:41.171Z,11.48
2019-02-10T05:37:09.957Z,8.18
2019-02-10T05:39:38.718Z,16.27
2019-02-10T05:42:07.495Z,9.63
2019-02-10T05:44:36.311Z,6.17
2019-02-10T05:47:05.091Z,9.43
2019-02-10T05:49:34.183Z,10.85
2019-02-10T05:52:02.923Z,6.15
2019-02-10T05:54:31.685Z,8.65
2019-02-10T05:57:00.461Z,8.78
2019-02-10T05:59:29.276Z,12.15
2019-02-10T06:02:10.646Z,10.95
2019-02-10T06:04:43.422Z,9.90
2019-02-10T06:07:17.961Z,9.38
2019-02-10T06:09:46.725Z,9.10
2019-02-10T06:12:16.150Z,9.08
2019-02-10T06:14:44.974Z,9.43
2019-02-10T06:17:13.763Z,7.42
2019-02-10T06:19:42.530Z,10.90
2019-02-10T06:22:11.298Z,6.50
2019-02-10T06:24:40.112Z,7.83
2019-02-10T06:27:08.846Z,8.33
2019-02-10T06:29:37.932Z,8.30
2019-02-10T06:32:06.706Z,8.13
2019-02-10T06:34:35.427Z,8.00
2019-02-10T06:37:04.231Z,10.15
2019-02-10T06:39:33.028Z,13.72
2019-02-10T06:42:01.824Z,11.53
2019-02-10T06:44:30.686Z,11.57
2019-02-10T06:46:59.420Z,10.03
2019-02-10T06:49:28.195Z,16.45
2019-02-10T06:51:57.005Z,10.75
2019-02-10T06:54:25.784Z,17.65
2019-02-10T06:56:54.606Z,8.13
2019-02-10T06:59:25.007Z,11.12
2019-02-10T07:01:55.428Z,11.78
2019-02-10T07:04:24.232Z,12.30
2019-02-10T07:06:53.175Z,7.72
2019-02-10T07:09:23.586Z,14.03
2019-02-10T07:11:52.401Z,17.05
2019-02-10T07:14:27.065Z,8.55
2019-02-10T07:17:07.747Z,9.08
2019-02-10T07:20:12.909Z,15.48
2019-02-10T07:22:44.725Z,11.68
2019-02-10T07:25:16.551Z,10.93
2019-02-10T07:28:03.423Z,15.32
2019-02-10T07:30:44.272Z,15.90
2019-02-10T07:33:16.109Z,9.60
2019-02-10T07:36:05.397Z,10.15
2019-02-10T07:38:38.761Z,11.70
2019-02-10T07:41:43.015Z,14.23
2019-02-10T07:44:17.918Z,13.20
2019-02-10T07:47:08.044Z,6.87
2019-02-10T07:50:13.212Z,14.05
2019-02-10T07:52:50.864Z,8.73
2019-02-10T07:55:42.375Z,10.40
2019-02-10T07:58:32.399Z,8.93
2019-02-10T08:01:19.414Z,5.25
2019-02-10T08:03:56.968Z,13.10
2019-02-10T08:06:49.568Z,11.10
2019-02-10T08:09:29.927Z,14.80
2019-02-10T08:12:01.789Z,13.28
2019-02-10T08:14:42.367Z,9.78
2019-02-10T08:17:22.981Z,6.00
2019-02-10T08:20:12.512Z,11.43
2019-02-10T08:22:59.266Z,9.33
2019-02-10T08:25:42.398Z,11.83
2019-02-10T08:28:32.397Z,15.45
2019-02-10T08:31:13.161Z,13.85
2019-02-10T08:33:45.004Z,10.55
2019-02-10T08:36:48.767Z,10.82
2019-02-10T08:39:20.640Z,12.13
2019-02-10T08:41:55.058Z,10.75
2019-02-10T08:44:26.894Z,17.02
2019-02-10T08:47:04.861Z,11.70
2019-02-10T08:50:01.086Z,8.38
2019-02-10T08:52:51.747Z,13.68
2019-02-10T08:55:15.622Z,14.60
2019-02-10T08:57:44.719Z,11.10
2019-02-10T09:00:13.524Z,6.92
2019-02-10T09:02:42.365Z,10.30
2019-02-10T09:05:11.472Z,11.55
2019-02-10T09:07:40.271Z,10.03
2019-02-10T09:10:11.605Z,12.07
2019-02-10T09:12:40.415Z,10.50
2019-02-10T09:15:11.575Z,15.78
2019-02-10T09:17:40.454Z,15.48
2019-02-10T09:20:10.850Z,17.07
2019-02-10T09:22:39.582Z,18.87
2019-02-10T09:25:10.775Z,14.68
2019-02-10T09:27:39.497Z,11.85
2019-02-10T09:30:13.516Z,15.50
2019-02-10T09:32:42.726Z,14.35
2019-02-10T09:35:13.042Z,13.70
2019-02-10T09:37:41.852Z,12.63
2019-02-10T09:40:13.905Z,11.53
2019-02-10T09:42:42.704Z,14.87
2019-02-10T09:45:12.917Z,11.60
2019-02-10T09:47:41.681Z,11.55
2019-02-10T09:50:13.463Z,12.43
2019-02-10T09:52:42.259Z,10.20
2019-02-10T09:55:11.212Z,10.98
2019-02-10T09:57:40.024Z,15.70
2019-02-10T10:00:15.542Z,10.95
2019-02-10T10:02:44.350Z,12.53
2019-02-10T10:05:13.794Z,12.53
2019-02-10T10:07:42.570Z,15.43
2019-02-10T10:10:13.340Z,9.28
2019-02-10T10:12:41.995Z,12.63
2019-02-10T10:15:15.824Z,17.75
2019-02-10T10:17:44.568Z,19.07
2019-02-10T10:20:15.974Z,8.48
2019-02-10T10:22:44.829Z,9.40
2019-02-10T10:25:14.380Z,16.77
2019-02-10T10:27:43.188Z,11.78
2019-02-10T10:30:14.839Z,14.93
2019-02-10T10:32:43.591Z,9.13
2019-02-10T10:35:12.435Z,8.40
2019-02-10T10:37:41.334Z,18.82
2019-02-10T10:40:11.564Z,10.55
2019-02-10T10:42:40.352Z,11.40
2019-02-10T10:45:14.365Z,8.03
2019-02-10T10:47:43.131Z,8.03
2019-02-10T10:50:14.301Z,8.65
2019-02-10T10:52:43.083Z,11.70
2019-02-10T10:55:12.891Z,7.25
2019-02-10T10:57:41.643Z,12.30
2019-02-10T11:00:15.042Z,15.28
2019-02-10T11:02:43.812Z,13.55
2019-02-10T11:05:12.625Z,11.08
2019-02-10T11:07:42.298Z,9.60
2019-02-10T11:10:12.542Z,10.88
2019-02-10T11:12:41.340Z,12.20
2019-02-10T11:15:12.970Z,11.65
2019-02-10T11:17:41.731Z,14.20
2019-02-10T11:20:11.647Z,7.12
2019-02-10T11:22:40.482Z,15.45
2019-02-10T11:25:10.828Z,7.95
2019-02-10T11:27:39.582Z,10.40
2019-02-10T11:30:13.845Z,9.30
2019-02-10T11:32:42.762Z,14.45
2019-02-10T11:35:11.777Z,15.90
2019-02-10T11:37:40.596Z,10.93
2019-02-10T11:40:11.958Z,13.55
2019-02-10T11:42:40.736Z,10.03
2019-02-10T11:45:12.214Z,11.60
2019-02-10T11:47:40.970Z,9.50
2019-02-10T11:50:12.459Z,8.05
2019-02-10T11:52:41.284Z,24.82
2019-02-10T11:55:11.179Z,8.83
2019-02-10T11:57:39.968Z,8.20
2019-02-10T12:00:18.399Z,9.30
2019-02-10T12:02:47.167Z,9.95
2019-02-10T12:05:15.901Z,12.35
2019-02-10T12:07:44.677Z,11.10
2019-02-10T12:10:16.092Z,8.78
2019-02-10T12:12:44.878Z,11.40
2019-02-10T12:15:16.528Z,7.20
2019-02-10T12:17:45.280Z,8.68
2019-02-10T12:20:14.750Z,9.80
2019-02-10T12:22:50.031Z,11.18
2019-02-10T12:25:13.991Z,6.55
2019-02-10T12:27:42.773Z,6.45
2019-02-10T12:30:16.445Z,8.90
2019-02-10T12:32:45.220Z,8.08
2019-02-10T12:35:14.300Z,5.78
2019-02-10T12:37:43.068Z,7.72
2019-02-10T12:40:12.405Z,6.12
2019-02-10T12:42:41.246Z,11.10
2019-02-10T12:45:13.960Z,3.85
2019-02-10T12:47:43.162Z,10.55
2019-02-10T12:50:15.557Z,7.20
2019-02-10T12:52:44.310Z,6.10
2019-02-10T12:55:13.328Z,6.35
2019-02-10T12:57:42.073Z,7.33
2019-02-10T13:00:16.466Z,7.03
2019-02-10T13:02:45.310Z,6.58
2019-02-10T13:05:14.080Z,5.72
2019-02-10T13:07:42.886Z,4.00
2019-02-10T13:10:13.212Z,12.10
2019-02-10T13:12:42.045Z,4.53
2019-02-10T13:15:11.809Z,5.05
2019-02-10T13:17:40.590Z,4.00
2019-02-10T13:20:13.403Z,6.42
2019-02-10T13:22:42.389Z,3.33
2019-02-10T13:25:12.360Z,5.47
2019-02-10T13:27:41.129Z,5.35
2019-02-10T13:30:29.114Z,7.83
2019-02-10T13:33:16.932Z,6.15
2019-02-10T13:36:04.812Z,12.98
2019-02-10T13:38:52.773Z,8.23
2019-02-10T13:41:40.720Z,4.55
2019-02-10T13:44:28.597Z,10.98
2019-02-10T14:04:50.153Z,5.50
2019-02-10T14:25:38.011Z,6.80
2019-02-10T14:31:31.296Z,4.67
2019-02-10T14:34:12.724Z,4.08
2019-02-10T14:36:53.483Z,5.30
2019-02-10T15:03:28.137Z,14.68
2019-02-10T15:06:06.673Z,5.15
2019-02-10T15:17:45.003Z,5.58
2019-02-10T15:20:26.213Z,6.97
2019-02-10T15:49:58.390Z,3.70
2019-02-10T16:04:35.933Z,5.65
2019-02-10T16:10:16.830Z,4.37
2019-02-10T16:12:45.720Z,8.50
2019-02-10T16:15:34.098Z,4.95
2019-02-10T16:18:02.917Z,5.92
2019-02-10T16:20:31.734Z,4.10
2019-02-10T16:23:00.931Z,6.40
2019-02-10T16:25:29.676Z,6.25
2019-02-10T16:27:58.494Z,5.08
2019-02-10T16:30:46.509Z,7.92
2019-02-10T16:33:34.668Z,5.60
2019-02-10T16:36:03.440Z,6.10
2019-02-10T16:38:51.293Z,5.35
2019-02-10T16:41:20.030Z,5.50
2019-02-10T16:44:07.796Z,6.40
2019-02-10T16:46:55.943Z,6.28
2019-02-10T16:52:49.809Z,5.75
2019-02-10T16:58:14.150Z,4.60
2019-02-10T17:00:55.126Z,4.20
2019-02-10T17:03:23.926Z,7.10
2019-02-10T17:05:52.717Z,4.35
2019-02-10T17:08:21.644Z,7.45
2019-02-10T17:11:14.478Z,4.67
2019-02-10T17:13:59.283Z,4.35
2019-02-10T17:16:48.322Z,4.08
2019-02-10T17:19:36.238Z,4.00
2019-02-10T17:22:24.087Z,4.58
2019-02-10T17:25:12.093Z,4.47
2019-02-10T17:28:01.224Z,4.60
2019-02-10T17:30:30.070Z,4.85
2019-02-10T17:33:17.921Z,4.47
2019-02-10T17:36:05.710Z,4.15
2019-02-10T17:38:53.685Z,4.12
2019-02-10T17:41:41.768Z,4.70
2019-02-10T17:44:42.020Z,5.85
2019-02-10T17:47:19.538Z,4.53
2019-02-10T17:55:58.380Z,3.60
2019-02-10T18:04:55.941Z,5.78
2019-02-10T18:31:33.326Z,4.55
2019-02-10T18:34:34.026Z,3.70
2019-02-10T18:37:14.287Z,3.80
2019-02-10T18:39:54.699Z,5.67
2019-02-10T18:45:38.458Z,4.45
2019-02-10T19:00:48.457Z,3.27
2019-02-10T19:06:43.370Z,3.30
2019-02-10T19:12:25.677Z,3.15
2019-02-10T19:30:04.778Z,2.33
2019-02-10T19:32:38.044Z,3.77
2019-02-10T19:35:23.801Z,4.55
2019-02-10T19:38:02.719Z,3.17
2019-02-10T19:40:51.220Z,3.70
2019-02-10T19:43:30.524Z,2.95
2019-02-10T19:46:00.931Z,5.85
2019-02-10T19:48:40.038Z,2.33
2019-02-10T19:51:27.059Z,2.62
2019-02-10T19:54:03.583Z,2.77
2019-02-10T19:56:34.069Z,3.98
2019-02-10T19:59:20.865Z,3.02
2019-02-10T20:01:51.303Z,4.00
2019-02-10T20:04:33.967Z,4.92
2019-02-10T20:07:10.482Z,3.10
2019-02-10T20:09:41.030Z,2.65
2019-02-10T20:12:11.499Z,2.47
2019-02-10T20:14:47.801Z,3.17
2019-02-10T20:17:24.165Z,3.05
2019-02-10T20:19:57.238Z,3.30
2019-02-10T20:22:33.732Z,5.08
2019-02-10T20:25:06.793Z,2.45
2019-02-10T20:27:43.188Z,2.85
2019-02-10T20:30:19.620Z,2.50
2019-02-10T20:32:59.010Z,3.77
2019-02-10T20:35:38.507Z,3.05
2019-02-10T20:38:18.113Z,2.30
2019-02-10T20:40:48.569Z,3.58
2019-02-10T20:43:19.008Z,4.03
2019-02-10T20:45:52.542Z,3.47
2019-02-10T20:48:37.901Z,3.45
2019-02-10T20:51:17.560Z,3.45
2019-02-10T20:53:47.945Z,3.15
2019-02-10T20:56:36.448Z,2.58
2019-02-10T20:59:12.821Z,3.15
2019-02-10T21:01:43.310Z,2.35
2019-02-10T21:04:13.676Z,3.75
2019-02-10T21:06:59.421Z,2.60
2019-02-10T21:09:38.630Z,2.40
2019-02-10T21:12:11.813Z,3.27
2019-02-10T21:15:00.572Z,2.00
2019-02-10T21:17:30.993Z,2.30
2019-02-10T21:20:01.388Z,3.20
2019-02-10T21:22:46.974Z,1.42
2019-02-10T21:25:23.643Z,2.30
2019-02-10T21:27:54.063Z,2.60
2019-02-10T21:30:41.029Z,2.05
2019-02-10T21:33:11.401Z,1.55
2019-02-10T21:35:54.088Z,1.47
2019-02-10T21:38:24.495Z,1.22
2019-02-10T21:40:57.940Z,1.25
2019-02-10T21:43:37.271Z,1.50
2019-02-10T21:46:07.690Z,1.37
2019-02-10T21:48:36.630Z,1.70
2019-02-10T21:51:05.498Z,1.35
2019-02-10T21:53:34.257Z,1.95
2019-02-10T21:56:03.004Z,2.58
2019-02-10T21:58:31.762Z,3.05
2019-02-10T22:01:00.562Z,1.30
2019-02-10T22:03:29.346Z,2.72
2019-02-10T22:05:58.170Z,1.40
2019-02-10T22:08:26.936Z,1.80
2019-02-10T22:10:55.746Z,1.20
2019-02-10T22:13:24.476Z,2.00
2019-02-10T22:15:53.254Z,1.57
2019-02-10T22:18:22.071Z,1.32
2019-02-10T22:20:50.878Z,2.05
2019-02-10T22:23:19.631Z,2.30
2019-02-10T22:25:48.376Z,1.32
2019-02-10T22:28:17.145Z,1.20
2019-02-10T22:30:45.908Z,4.67
2019-02-10T22:33:14.700Z,1.45
2019-02-10T22:35:43.503Z,1.50
2019-02-10T22:38:12.296Z,1.35
2019-02-10T22:40:41.069Z,1.55
2019-02-10T22:43:09.834Z,1.00
2019-02-10T22:45:38.578Z,1.27
2019-02-10T22:48:07.342Z,1.20
2019-02-10T22:50:36.064Z,1.20
2019-02-10T22:53:04.871Z,1.10
2019-02-10T22:55:33.653Z,1.25
2019-02-10T22:58:02.428Z,1.05
2019-02-10T23:00:39.213Z,1.15
2019-02-10T23:03:07.988Z,1.05
2019-02-10T23:05:36.763Z,2.35
2019-02-10T23:08:05.518Z,0.90
2019-02-10T23:10:34.268Z,2.35
2019-02-10T23:13:03.065Z,1.02
2019-02-10T23:15:31.887Z,1.20
2019-02-10T23:18:00.659Z,1.90
2019-02-10T23:20:29.403Z,1.35
2019-02-10T23:22:58.148Z,1.70
2019-02-10T23:25:26.922Z,1.00
2019-02-10T23:27:55.667Z,1.17
2019-02-10T23:30:24.798Z,1.20
2019-02-10T23:32:53.621Z,0.90
2019-02-10T23:35:22.447Z,1.35
2019-02-10T23:37:51.196Z,1.10
2019-02-10T23:40:19.972Z,1.52
2019-02-10T23:42:48.780Z,1.75
2019-02-10T23:45:17.542Z,1.52
2019-02-10T23:47:46.335Z,1.10
2019-02-10T23:50:15.115Z,2.40
2019-02-10T23:52:43.945Z,1.32
2019-02-10T23:55:12.746Z,5.10
2019-02-10T23:57:41.492Z,2.17
